High Priority — WDI7956 — position and weather

sailwx.info

Track history (hours):
 
Tides and Currents Weather Stations Pressure Air Temp Water Temp Dewpoint Dewpoint Depression Visibility Wind Speed Wind Dir Waves Ship Positions

High Priority

Owner: Pryor, Paul E, Fallbrook, CA. More information available from US FCC via Universal Licensing System and Coast Guard Vessel Documentation Center.

Last reported at 2017-Oct-18 00:10 UTC. Time now 2017-Oct-18 03:35 UTC.
Position N 33°43' W 118°04'.

Length 25 m.

Type: Pleasure craft. MMSI: 367733880.

Date/timePositionNaut miles runAvg speedWind from/ knotsBaromVisibWave heightAir tempDewpointWater temp
2017-Oct-18 00:10N 33°43' W 118°04'0 0.0
2017-Oct-18 00:00N 33°43' W 118°04'0 0.0
2017-Oct-17 20:25N 33°43' W 118°04'0 0.0
2017-Oct-17 19:32N 33°43' W 118°04'0 0.0
2017-Oct-17 19:30N 33°43' W 118°04'0 0.0
2017-Oct-17 15:55N 33°43' W 118°04'0 0.0
2017-Oct-17 15:21N 33°43' W 118°04'0 0.0
2017-Oct-17 13:55N 33°43' W 118°04'0 0.0
2017-Oct-17 01:18N 33°43' W 118°04'0 0.0
2017-Oct-17 00:51N 33°43' W 118°04'0 0.0
2017-Oct-17 00:30N 33°43' W 118°04'0 0.0
2017-Oct-16 23:08N 33°43' W 118°04'0 0.0
2017-Oct-16 23:00N 33°43' W 118°04'0 0.0
2017-Oct-16 22:30N 33°43' W 118°04'0 0.0
2017-Oct-16 22:00N 33°43' W 118°04'0 0.0
2017-Oct-16 21:30N 33°43' W 118°04'0 0.0
2017-Oct-16 21:00N 33°43' W 118°04'0 0.0
2017-Oct-16 20:30N 33°43' W 118°04'0 0.0
2017-Oct-16 20:00N 33°43' W 118°04'0 0.0
2017-Oct-16 19:30N 33°43' W 118°04'0 0.0
2017-Oct-16 19:01N 33°43' W 118°04'0 0.0
2017-Oct-16 18:30N 33°43' W 118°04'0 0.0
2017-Oct-16 18:00N 33°43' W 118°04'0 0.0
2017-Oct-16 17:18N 33°43' W 118°04'0 0.0
2017-Oct-16 17:00N 33°43' W 118°04'0 0.0
2017-Oct-16 16:30N 33°43' W 118°04'0 0.0
2017-Oct-16 16:00N 33°43' W 118°04'0 0.0
2017-Oct-16 15:30N 33°43' W 118°04'0 0.0
2017-Oct-16 14:57N 33°43' W 118°04'0 0.0
2017-Oct-16 14:29N 33°43' W 118°04'0 0.0
2017-Oct-16 01:10N 33°43' W 118°04'0 0.0
2017-Oct-16 01:00N 33°43' W 118°04'0 0.0
2017-Oct-16 00:30N 33°43' W 118°04'0 0.0
2017-Oct-16 00:00N 33°43' W 118°04'0 0.0
2017-Oct-15 23:30N 33°43' W 118°04'0 0.0
2017-Oct-15 22:49N 33°43' W 118°04'0 0.0
2017-Oct-15 22:29N 33°43' W 118°04'0 0.0
2017-Oct-15 22:00N 33°43' W 118°04'0 0.0
2017-Oct-15 21:30N 33°43' W 118°04'0 0.0
2017-Oct-15 20:12N 33°43' W 118°04'0 0.9
2017-Oct-15 20:00N 33°44' W 118°04'3 5.2
2017-Oct-15 19:29N 33°42' W 118°07'5 9.4
2017-Oct-15 19:00N 33°39' W 118°12'4 8.1
2017-Oct-15 18:29N 33°37' W 118°15'4 7.6
2017-Oct-15 18:00N 33°35' W 118°19'8 7.5
2017-Oct-15 16:53N 33°29' W 118°27'3 7.5
2017-Oct-15 16:28N 33°27' W 118°30'0 0.7
2017-Oct-15 16:00N 33°27' W 118°30'0 0.0
2017-Oct-15 15:30N 33°27' W 118°30'0 0.0
2017-Oct-15 15:00N 33°27' W 118°30'0 0.0
2017-Oct-15 14:00N 33°27' W 118°30'0 0.0
2017-Oct-15 13:30N 33°27' W 118°30'0 0.0
2017-Oct-15 13:00N 33°27' W 118°30'0 0.0
2017-Oct-15 12:30N 33°27' W 118°30'0 0.0
2017-Oct-15 12:00N 33°27' W 118°30'0 0.0
2017-Oct-15 11:30N 33°27' W 118°30'0 0.0
2017-Oct-15 11:00N 33°27' W 118°30'0 0.0
2017-Oct-15 10:30N 33°27' W 118°30'0 0.0
2017-Oct-15 10:00N 33°27' W 118°30'0 0.0
2017-Oct-15 09:30N 33°27' W 118°30'0 0.0
2017-Oct-15 09:00N 33°27' W 118°30'0 0.0
2017-Oct-15 08:30N 33°27' W 118°30'0 0.0
2017-Oct-15 08:00N 33°27' W 118°30'0 0.0
2017-Oct-15 07:06N 33°27' W 118°30'0 0.0
2017-Oct-15 07:00N 33°27' W 118°30'0 0.0
2017-Oct-15 06:30N 33°27' W 118°30'0 0.0
2017-Oct-15 05:28N 33°27' W 118°30'0 0.0
2017-Oct-15 04:59N 33°27' W 118°30'0 0.0
2017-Oct-15 04:30N 33°27' W 118°30'0 0.0
2017-Oct-15 04:01N 33°27' W 118°30'0 0.0
2017-Oct-15 03:31N 33°27' W 118°30'0 0.0
2017-Oct-15 03:00N 33°27' W 118°30'0 0.0
2017-Oct-15 02:30N 33°27' W 118°30'0 0.0
2017-Oct-15 02:00N 33°27' W 118°30'0 0.0
2017-Oct-15 01:30N 33°27' W 118°30'0 0.0
2017-Oct-15 01:00N 33°27' W 118°30'0 0.0
2017-Oct-15 00:30N 33°27' W 118°30'0 0.0
2017-Oct-15 00:01N 33°27' W 118°30'0 0.0
2017-Oct-14 23:30N 33°27' W 118°30'0 0.0
2017-Oct-14 23:00N 33°27' W 118°30'0 0.0
2017-Oct-14 22:30N 33°27' W 118°30'0 0.0
2017-Oct-14 21:59N 33°27' W 118°30'0 0.0
2017-Oct-14 21:30N 33°27' W 118°30'0 0.0
2017-Oct-14 21:01N 33°27' W 118°30'0 0.0
2017-Oct-14 20:30N 33°27' W 118°30'0 0.0
2017-Oct-14 20:01N 33°27' W 118°30'0 0.0
2017-Oct-14 19:30N 33°27' W 118°30'0 0.0
2017-Oct-14 19:00N 33°27' W 118°30'0 0.0
2017-Oct-14 18:31N 33°27' W 118°30'0 0.0
2017-Oct-14 17:59N 33°27' W 118°30'0 0.0
2017-Oct-14 17:30N 33°27' W 118°30'0 0.0
2017-Oct-14 16:59N 33°27' W 118°30'0 0.0
2017-Oct-14 16:30N 33°27' W 118°30'0 0.0
2017-Oct-14 15:58N 33°27' W 118°30'0 0.0
2017-Oct-14 15:31N 33°27' W 118°30'0 0.0
2017-Oct-14 14:33N 33°27' W 118°30'0 0.0
2017-Oct-14 14:03N 33°27' W 118°30'0 0.0
2017-Oct-14 14:00N 33°27' W 118°30'0 0.0
2017-Oct-14 13:31N 33°27' W 118°30'0 0.0
2017-Oct-14 13:00N 33°27' W 118°30'0 0.0
2017-Oct-14 12:30N 33°27' W 118°30'0 0.0
2017-Oct-14 12:01N 33°27' W 118°30'0 0.0
2017-Oct-14 11:30N 33°27' W 118°30'0 0.0
2017-Oct-14 11:00N 33°27' W 118°30'0 0.0
2017-Oct-14 10:31N 33°27' W 118°30'0 0.0
2017-Oct-14 10:00N 33°27' W 118°30'0 0.0
2017-Oct-14 09:31N 33°27' W 118°30'0 0.0
2017-Oct-14 09:00N 33°27' W 118°30'0 0.0
2017-Oct-14 07:53N 33°27' W 118°30'0 0.0
2017-Oct-14 07:26N 33°27' W 118°30'0 0.0
2017-Oct-14 06:59N 33°27' W 118°30'0 0.0
2017-Oct-14 06:30N 33°27' W 118°30'0 0.0
2017-Oct-14 05:12N 33°27' W 118°30'0 0.0
2017-Oct-14 04:54N 33°27' W 118°30'0 0.0
2017-Oct-14 04:30N 33°27' W 118°30'0 0.0
2017-Oct-14 04:01N 33°27' W 118°30'0 0.0
2017-Oct-14 03:30N 33°27' W 118°30'0 0.0
2017-Oct-14 03:00N 33°27' W 118°30'0 0.0
2017-Oct-14 02:30N 33°27' W 118°30'0 0.0
2017-Oct-14 02:00N 33°27' W 118°30'0 0.0
2017-Oct-14 01:30N 33°27' W 118°30'0 0.0
2017-Oct-14 01:00N 33°27' W 118°30'0 0.0
2017-Oct-14 00:11N 33°27' W 118°30'0 0.0
2017-Oct-14 00:00N 33°27' W 118°30'0 0.0
2017-Oct-13 23:30N 33°27' W 118°30'0 0.0
2017-Oct-13 22:15N 33°27' W 118°30'6 4.5
2017-Oct-13 20:57N 33°31' W 118°35'3 7.5
2017-Oct-13 20:30N 33°33' W 118°39'8 9.1
2017-Oct-13 19:39N 33°37' W 118°46'1 9.3
2017-Oct-13 19:30N 33°38' W 118°48'5 9.4
2017-Oct-13 19:00N 33°40' W 118°53'5 9.1
2017-Oct-13 18:30N 33°43' W 118°57'4 8.9
2017-Oct-13 18:00N 33°45' W 119°02'4 9.0
2017-Oct-13 17:30N 33°47' W 119°06'4 8.3
2017-Oct-13 17:01N 33°50' W 119°10'4 8.9
2017-Oct-13 16:30N 33°52' W 119°15'4 8.9
2017-Oct-13 16:01N 33°55' W 119°20'5 9.1
2017-Oct-13 15:30N 33°57' W 119°24'5 9.0
2017-Oct-13 14:59N 33°60' W 119°29'3 6.8
2017-Oct-13 14:30N 34°01' W 119°32'0 0.0
2017-Oct-13 14:00N 34°01' W 119°32'0 0.0
2017-Oct-13 13:31N 34°01' W 119°32'0 0.0
2017-Oct-13 12:59N 34°01' W 119°32'0 0.0
2017-Oct-13 12:30N 34°01' W 119°32'0 0.0
2017-Oct-13 12:00N 34°01' W 119°32'0 0.0
2017-Oct-13 11:30N 34°01' W 119°32'0 0.0
2017-Oct-13 11:00N 34°01' W 119°32'0 0.0
2017-Oct-13 10:30N 34°01' W 119°32'0 0.0
2017-Oct-13 10:00N 34°01' W 119°32'0 0.0
2017-Oct-13 09:31N 34°01' W 119°32'0 0.0
2017-Oct-13 09:01N 34°01' W 119°32'0 0.0
2017-Oct-13 08:31N 34°01' W 119°32'0 0.0
2017-Oct-13 08:01N 34°01' W 119°32'0 0.0
2017-Oct-13 07:31N 34°01' W 119°32'0 0.0
2017-Oct-13 07:01N 34°01' W 119°32'0 0.0
2017-Oct-13 06:23N 34°01' W 119°32'0 0.0
2017-Oct-13 06:01N 34°01' W 119°32'0 0.0
2017-Oct-13 05:31N 34°01' W 119°32'0 0.0
2017-Oct-13 05:01N 34°01' W 119°32'0 0.0
2017-Oct-13 04:31N 34°01' W 119°32'0 0.0
2017-Oct-13 04:01N 34°01' W 119°32'0 0.0
2017-Oct-13 03:20N 34°01' W 119°32'0 0.0
2017-Oct-13 02:58N 34°01' W 119°32'0 0.0
2017-Oct-13 02:11N 34°01' W 119°32'0 0.0
2017-Oct-13 02:00N 34°01' W 119°32'0 0.1
2017-Oct-13 01:29N 34°01' W 119°32'0 0.0
2017-Oct-13 01:00N 34°01' W 119°32'1 0.8
2017-Oct-12 23:53N 34°02' W 119°31'2 5.4
2017-Oct-12 23:29N 34°03' W 119°33'0 0.0
2017-Oct-12 22:58N 34°03' W 119°33'0 0.0
2017-Oct-12 22:30N 34°03' W 119°33'0 0.0
2017-Oct-12 21:58N 34°03' W 119°33'0 0.0
2017-Oct-12 21:30N 34°03' W 119°33'0 0.0
2017-Oct-12 21:00N 34°03' W 119°33'2 4.1
2017-Oct-12 20:28N 34°02' W 119°31'4 9.3
2017-Oct-12 20:00N 33°59' W 119°34'5 9.6
2017-Oct-12 19:30N 33°58' W 119°40'0 0.0
2017-Oct-12 16:42N 33°58' W 119°40'2 8.6
2017-Oct-12 16:25N 33°58' W 119°37'4 8.4
2017-Oct-12 15:58N 33°59' W 119°32'2 4.1
2017-Oct-12 15:27N 34°01' W 119°32'0 0.0
2017-Oct-12 15:00N 34°01' W 119°32'0 0.0
2017-Oct-12 14:25N 34°01' W 119°32'0 0.0
2017-Oct-12 13:52N 34°01' W 119°32'0 0.0
2017-Oct-12 13:08N 34°01' W 119°32'0 0.0
2017-Oct-12 12:59N 34°01' W 119°32'0 0.0
2017-Oct-12 12:29N 34°01' W 119°32'0 0.0
2017-Oct-12 11:52N 34°01' W 119°32'0 0.0
2017-Oct-12 11:29N 34°01' W 119°32'0 0.0
2017-Oct-12 10:52N 34°01' W 119°32'0 0.0
2017-Oct-12 10:28N 34°01' W 119°32'0 0.0
2017-Oct-12 09:58N 34°01' W 119°32'0 0.0
2017-Oct-12 09:31N 34°01' W 119°32'0 0.0
2017-Oct-12 09:01N 34°01' W 119°32'0 0.1
2017-Oct-12 08:30N 34°01' W 119°32'0 0.1
2017-Oct-12 07:35N 34°01' W 119°32'0 0.0
2017-Oct-12 07:31N 34°01' W 119°32'0 0.0
2017-Oct-12 06:57N 34°01' W 119°32'0 0.0
2017-Oct-12 06:30N 34°01' W 119°32'0 0.0
2017-Oct-12 06:00N 34°01' W 119°32'0 0.0
2017-Oct-12 05:09N 34°01' W 119°32'0 0.0
2017-Oct-12 04:39N 34°01' W 119°32'0 0.0
2017-Oct-12 04:15N 34°01' W 119°32'0 0.0
2017-Oct-12 04:00N 34°01' W 119°32'0 0.0
2017-Oct-12 03:30N 34°01' W 119°32'0 0.0
2017-Oct-12 02:59N 34°01' W 119°32'0 0.0
2017-Oct-12 02:30N 34°01' W 119°32'0 0.0
2017-Oct-12 01:55N 34°01' W 119°32'0 0.0
2017-Oct-12 01:30N 34°01' W 119°32'0 0.0
2017-Oct-12 01:00N 34°01' W 119°32'0 0.0
2017-Oct-12 00:30N 34°01' W 119°32'0 0.0
2017-Oct-12 00:00N 34°01' W 119°32'0 0.0
2017-Oct-11 23:30N 34°01' W 119°32'0 0.0
2017-Oct-11 22:57N 34°01' W 119°32'0 0.1
2017-Oct-11 22:30N 34°01' W 119°32'0 0.1
2017-Oct-11 21:59N 34°01' W 119°32'4 7.5
2017-Oct-11 21:30N 34°01' W 119°28'4 8.7
2017-Oct-11 21:00N 34°01' W 119°23'4 8.5
2017-Oct-11 20:30N 34°00' W 119°18'5 9.1
2017-Oct-11 20:00N 33°58' W 119°13'4 8.7
2017-Oct-11 19:30N 33°57' W 119°08'4 9.0
2017-Oct-11 19:00N 33°55' W 119°03'5 9.3
2017-Oct-11 18:30N 33°54' W 118°57'5 9.1
2017-Oct-11 18:00N 33°52' W 118°52'5 8.8
2017-Oct-11 17:29N 33°51' W 118°47'4 8.8
2017-Oct-11 16:59N 33°49' W 118°42'32 1.9
2017-Oct-11 00:01N 33°43' W 118°04'0 0.0
2017-Oct-10 23:30N 33°43' W 118°04'0 0.0
2017-Oct-10 23:00N 33°43' W 118°04'0 0.0
2017-Oct-10 22:31N 33°43' W 118°04'1 1.1
2017-Oct-10 22:00N 33°44' W 118°05'0 0.1
2017-Oct-10 21:31N 33°44' W 118°05'1 1.2
2017-Oct-10 21:01N 33°43' W 118°04'0 0.0
2017-Oct-10 20:30N 33°43' W 118°04'0 0.0
2017-Oct-10 20:00N 33°43' W 118°04'0 0.0
2017-Oct-10 19:30N 33°43' W 118°04'0 0.0
2017-Oct-10 19:01N 33°43' W 118°04'0 0.0
2017-Oct-10 18:31N 33°43' W 118°04'0 0.0
2017-Oct-10 18:01N 33°43' W 118°04'0 0.0
2017-Oct-10 17:30N 33°43' W 118°04'0 0.0
2017-Oct-10 17:00N 33°43' W 118°04'0 0.0
2017-Oct-10 16:30N 33°43' W 118°04'0 0.0
2017-Oct-10 16:00N 33°43' W 118°04'0 0.0
2017-Oct-10 15:30N 33°43' W 118°04'0 0.0
2017-Oct-10 15:00N 33°43' W 118°04'0 0.0
2017-Oct-10 14:01N 33°43' W 118°04'0 0.0
2017-Oct-10 13:30N 33°43' W 118°04'0 0.0
2017-Oct-10 13:01N 33°43' W 118°04'0 0.0
2017-Oct-10 12:31N 33°43' W 118°04'0 0.0
2017-Oct-10 12:01N 33°43' W 118°04'0 0.0
2017-Oct-10 11:30N 33°43' W 118°04'0 0.0
2017-Oct-10 11:01N 33°43' W 118°04'0 0.0
2017-Oct-10 10:31N 33°43' W 118°04'0 0.0
2017-Oct-10 10:00N 33°43' W 118°04'0 0.0
2017-Oct-10 09:31N 33°43' W 118°04'0 0.0
2017-Oct-10 09:00N 33°43' W 118°04'0 0.0
2017-Oct-10 08:28N 33°43' W 118°04'0 0.0
2017-Oct-10 08:00N 33°43' W 118°04'0 0.0
2017-Oct-10 07:31N 33°43' W 118°04'0 0.0
2017-Oct-10 07:01N 33°43' W 118°04'0 0.0
2017-Oct-10 06:31N 33°43' W 118°04'0 0.0
2017-Oct-10 05:57N 33°43' W 118°04'0 0.0
2017-Oct-10 05:30N 33°43' W 118°04'0 0.0
2017-Oct-10 05:01N 33°43' W 118°04'0 0.0
2017-Oct-10 04:31N 33°43' W 118°04'0 0.0
2017-Oct-10 04:00N 33°43' W 118°04'0 0.0
2017-Oct-10 03:31N 33°43' W 118°04'0 0.0
2017-Oct-10 03:00N 33°43' W 118°04'0 0.0
2017-Oct-10 02:30N 33°43' W 118°04'0 0.0
2017-Oct-10 02:01N 33°43' W 118°04'0 0.0
2017-Oct-10 01:30N 33°43' W 118°04'0 0.0
2017-Oct-10 01:01N 33°43' W 118°04'0 0.0
2017-Oct-10 00:30N 33°43' W 118°04'0 0.0
2017-Oct-10 00:01N 33°43' W 118°04'0 0.0
2017-Oct-09 23:31N 33°43' W 118°04'0 0.0
2017-Oct-09 23:00N 33°43' W 118°04'0 0.0
2017-Oct-09 22:30N 33°43' W 118°04'0 0.0
2017-Oct-09 21:42N 33°43' W 118°04'0 0.0
2017-Oct-09 21:30N 33°43' W 118°04'0 0.0
2017-Oct-09 21:00N 33°43' W 118°04'0 0.0
2017-Oct-09 20:23N 33°43' W 118°04'0 0.0
2017-Oct-09 18:43N 33°43' W 118°04'0 0.0
2017-Oct-09 18:28N 33°43' W 118°04'0 0.0
2017-Oct-09 17:53N 33°43' W 118°04'0 0.0
2017-Oct-09 16:28N 33°43' W 118°04'0 0.0
2017-Oct-09 15:59N 33°43' W 118°04'0 0.0
2017-Oct-08 22:24N 33°43' W 118°04'0 0.0
2017-Oct-08 21:54N 33°43' W 118°04'0 0.0
2017-Oct-08 20:42N 33°43' W 118°04'0 0.0
2017-Oct-08 18:15N 33°43' W 118°04'0 0.0
2017-Oct-08 17:56N 33°43' W 118°04'0 0.0
2017-Oct-08 17:12N 33°43' W 118°04'1 4.5
2017-Oct-08 16:57N 33°44' W 118°05'4 7.7
2017-Oct-08 16:29N 33°41' W 118°08'5 9.5
2017-Oct-08 16:01N 33°37' W 118°10'5 9.4
2017-Oct-08 15:31N 33°33' W 118°13'5 9.2
2017-Oct-08 15:00N 33°29' W 118°15'5 9.1
2017-Oct-08 14:30N 33°24' W 118°17'4 7.9
2017-Oct-08 14:01N 33°21' W 118°20'0 0.0
2017-Oct-08 13:30N 33°21' W 118°20'0 0.0
2017-Oct-08 13:00N 33°21' W 118°20'0 0.0
2017-Oct-08 12:30N 33°21' W 118°20'0 0.0
2017-Oct-08 12:00N 33°21' W 118°20'0 0.0
2017-Oct-08 11:30N 33°21' W 118°20'0 0.0
2017-Oct-08 11:00N 33°21' W 118°20'0 0.0
2017-Oct-08 10:30N 33°21' W 118°20'0 0.0
2017-Oct-08 10:01N 33°21' W 118°20'0 0.0
2017-Oct-08 09:30N 33°21' W 118°20'0 0.0
2017-Oct-08 09:01N 33°21' W 118°20'0 0.0
2017-Oct-08 08:31N 33°21' W 118°20'0 0.0
2017-Oct-08 08:00N 33°21' W 118°20'0 0.0
2017-Oct-08 07:29N 33°21' W 118°20'0 0.0
2017-Oct-08 07:00N 33°21' W 118°20'0 0.0
2017-Oct-08 06:29N 33°21' W 118°20'0 0.0
2017-Oct-08 06:01N 33°21' W 118°20'0 0.0
2017-Oct-08 05:30N 33°21' W 118°20'0 0.0
2017-Oct-08 05:00N 33°21' W 118°20'0 0.0
2017-Oct-08 04:30N 33°21' W 118°20'0 0.0
2017-Oct-08 04:00N 33°21' W 118°20'0 0.0
2017-Oct-08 03:30N 33°21' W 118°20'0 0.0
2017-Oct-08 03:01N 33°21' W 118°20'0 0.0
2017-Oct-08 02:31N 33°21' W 118°20'0 0.0
2017-Oct-08 02:00N 33°21' W 118°20'0 0.0
2017-Oct-08 01:26N 33°21' W 118°20'0 0.0
2017-Oct-08 01:00N 33°21' W 118°20'0 0.0
2017-Oct-08 00:30N 33°21' W 118°20'  
Track history (hours):
 
Tides and Currents Weather Stations Pressure Air Temp Water Temp Dewpoint Dewpoint Depression Visibility Wind Speed Wind Dir Waves Ship Positions

High Priority

Owner: Pryor, Paul E, Fallbrook, CA. More information available from US FCC via Universal Licensing System and Coast Guard Vessel Documentation Center.

Last reported at 2017-Oct-18 00:10 UTC. Time now 2017-Oct-18 03:35 UTC.
Position N 33°43' W 118°04'.

Length 25 m.

Type: Pleasure craft. MMSI: 367733880.

Date/timePositionNaut miles runAvg speedWind from/ knotsBaromVisibWave heightAir tempDewpointWater temp
2017-Oct-18 00:10N 33°43' W 118°04'0 0.0
2017-Oct-18 00:00N 33°43' W 118°04'0 0.0
2017-Oct-17 20:25N 33°43' W 118°04'0 0.0
2017-Oct-17 19:32N 33°43' W 118°04'0 0.0
2017-Oct-17 19:30N 33°43' W 118°04'0 0.0
2017-Oct-17 15:55N 33°43' W 118°04'0 0.0
2017-Oct-17 15:21N 33°43' W 118°04'0 0.0
2017-Oct-17 13:55N 33°43' W 118°04'0 0.0
2017-Oct-17 01:18N 33°43' W 118°04'0 0.0
2017-Oct-17 00:51N 33°43' W 118°04'0 0.0
2017-Oct-17 00:30N 33°43' W 118°04'0 0.0
2017-Oct-16 23:08N 33°43' W 118°04'0 0.0
2017-Oct-16 23:00N 33°43' W 118°04'0 0.0
2017-Oct-16 22:30N 33°43' W 118°04'0 0.0
2017-Oct-16 22:00N 33°43' W 118°04'0 0.0
2017-Oct-16 21:30N 33°43' W 118°04'0 0.0
2017-Oct-16 21:00N 33°43' W 118°04'0 0.0
2017-Oct-16 20:30N 33°43' W 118°04'0 0.0
2017-Oct-16 20:00N 33°43' W 118°04'0 0.0
2017-Oct-16 19:30N 33°43' W 118°04'0 0.0
2017-Oct-16 19:01N 33°43' W 118°04'0 0.0
2017-Oct-16 18:30N 33°43' W 118°04'0 0.0
2017-Oct-16 18:00N 33°43' W 118°04'0 0.0
2017-Oct-16 17:18N 33°43' W 118°04'0 0.0
2017-Oct-16 17:00N 33°43' W 118°04'0 0.0
2017-Oct-16 16:30N 33°43' W 118°04'0 0.0
2017-Oct-16 16:00N 33°43' W 118°04'0 0.0
2017-Oct-16 15:30N 33°43' W 118°04'0 0.0
2017-Oct-16 14:57N 33°43' W 118°04'0 0.0
2017-Oct-16 14:29N 33°43' W 118°04'0 0.0
2017-Oct-16 01:10N 33°43' W 118°04'0 0.0
2017-Oct-16 01:00N 33°43' W 118°04'0 0.0
2017-Oct-16 00:30N 33°43' W 118°04'0 0.0
2017-Oct-16 00:00N 33°43' W 118°04'0 0.0
2017-Oct-15 23:30N 33°43' W 118°04'0 0.0
2017-Oct-15 22:49N 33°43' W 118°04'0 0.0
2017-Oct-15 22:29N 33°43' W 118°04'0 0.0
2017-Oct-15 22:00N 33°43' W 118°04'0 0.0
2017-Oct-15 21:30N 33°43' W 118°04'0 0.0
2017-Oct-15 20:12N 33°43' W 118°04'0 0.9
2017-Oct-15 20:00N 33°44' W 118°04'3 5.2
2017-Oct-15 19:29N 33°42' W 118°07'5 9.4
2017-Oct-15 19:00N 33°39' W 118°12'4 8.1
2017-Oct-15 18:29N 33°37' W 118°15'4 7.6
2017-Oct-15 18:00N 33°35' W 118°19'8 7.5
2017-Oct-15 16:53N 33°29' W 118°27'3 7.5
2017-Oct-15 16:28N 33°27' W 118°30'0 0.7
2017-Oct-15 16:00N 33°27' W 118°30'0 0.0
2017-Oct-15 15:30N 33°27' W 118°30'0 0.0
2017-Oct-15 15:00N 33°27' W 118°30'0 0.0
2017-Oct-15 14:00N 33°27' W 118°30'0 0.0
2017-Oct-15 13:30N 33°27' W 118°30'0 0.0
2017-Oct-15 13:00N 33°27' W 118°30'0 0.0
2017-Oct-15 12:30N 33°27' W 118°30'0 0.0
2017-Oct-15 12:00N 33°27' W 118°30'0 0.0
2017-Oct-15 11:30N 33°27' W 118°30'0 0.0
2017-Oct-15 11:00N 33°27' W 118°30'0 0.0
2017-Oct-15 10:30N 33°27' W 118°30'0 0.0
2017-Oct-15 10:00N 33°27' W 118°30'0 0.0
2017-Oct-15 09:30N 33°27' W 118°30'0 0.0
2017-Oct-15 09:00N 33°27' W 118°30'0 0.0
2017-Oct-15 08:30N 33°27' W 118°30'0 0.0
2017-Oct-15 08:00N 33°27' W 118°30'0 0.0
2017-Oct-15 07:06N 33°27' W 118°30'0 0.0
2017-Oct-15 07:00N 33°27' W 118°30'0 0.0
2017-Oct-15 06:30N 33°27' W 118°30'0 0.0
2017-Oct-15 05:28N 33°27' W 118°30'0 0.0
2017-Oct-15 04:59N 33°27' W 118°30'0 0.0
2017-Oct-15 04:30N 33°27' W 118°30'0 0.0
2017-Oct-15 04:01N 33°27' W 118°30'0 0.0
2017-Oct-15 03:31N 33°27' W 118°30'0 0.0
2017-Oct-15 03:00N 33°27' W 118°30'0 0.0
2017-Oct-15 02:30N 33°27' W 118°30'0 0.0
2017-Oct-15 02:00N 33°27' W 118°30'0 0.0
2017-Oct-15 01:30N 33°27' W 118°30'0 0.0
2017-Oct-15 01:00N 33°27' W 118°30'0 0.0
2017-Oct-15 00:30N 33°27' W 118°30'0 0.0
2017-Oct-15 00:01N 33°27' W 118°30'0 0.0
2017-Oct-14 23:30N 33°27' W 118°30'0 0.0
2017-Oct-14 23:00N 33°27' W 118°30'0 0.0
2017-Oct-14 22:30N 33°27' W 118°30'0 0.0
2017-Oct-14 21:59N 33°27' W 118°30'0 0.0
2017-Oct-14 21:30N 33°27' W 118°30'0 0.0
2017-Oct-14 21:01N 33°27' W 118°30'0 0.0
2017-Oct-14 20:30N 33°27' W 118°30'0 0.0
2017-Oct-14 20:01N 33°27' W 118°30'0 0.0
2017-Oct-14 19:30N 33°27' W 118°30'0 0.0
2017-Oct-14 19:00N 33°27' W 118°30'0 0.0
2017-Oct-14 18:31N 33°27' W 118°30'0 0.0
2017-Oct-14 17:59N 33°27' W 118°30'0 0.0
2017-Oct-14 17:30N 33°27' W 118°30'0 0.0
2017-Oct-14 16:59N 33°27' W 118°30'0 0.0
2017-Oct-14 16:30N 33°27' W 118°30'0 0.0
2017-Oct-14 15:58N 33°27' W 118°30'0 0.0
2017-Oct-14 15:31N 33°27' W 118°30'0 0.0
2017-Oct-14 14:33N 33°27' W 118°30'0 0.0
2017-Oct-14 14:03N 33°27' W 118°30'0 0.0
2017-Oct-14 14:00N 33°27' W 118°30'0 0.0
2017-Oct-14 13:31N 33°27' W 118°30'0 0.0
2017-Oct-14 13:00N 33°27' W 118°30'0 0.0
2017-Oct-14 12:30N 33°27' W 118°30'0 0.0
2017-Oct-14 12:01N 33°27' W 118°30'0 0.0
2017-Oct-14 11:30N 33°27' W 118°30'0 0.0
2017-Oct-14 11:00N 33°27' W 118°30'0 0.0
2017-Oct-14 10:31N 33°27' W 118°30'0 0.0
2017-Oct-14 10:00N 33°27' W 118°30'0 0.0
2017-Oct-14 09:31N 33°27' W 118°30'0 0.0
2017-Oct-14 09:00N 33°27' W 118°30'0 0.0
2017-Oct-14 07:53N 33°27' W 118°30'0 0.0
2017-Oct-14 07:26N 33°27' W 118°30'0 0.0
2017-Oct-14 06:59N 33°27' W 118°30'0 0.0
2017-Oct-14 06:30N 33°27' W 118°30'0 0.0
2017-Oct-14 05:12N 33°27' W 118°30'0 0.0
2017-Oct-14 04:54N 33°27' W 118°30'0 0.0
2017-Oct-14 04:30N 33°27' W 118°30'0 0.0
2017-Oct-14 04:01N 33°27' W 118°30'0 0.0
2017-Oct-14 03:30N 33°27' W 118°30'0 0.0
2017-Oct-14 03:00N 33°27' W 118°30'0 0.0
2017-Oct-14 02:30N 33°27' W 118°30'0 0.0
2017-Oct-14 02:00N 33°27' W 118°30'0 0.0
2017-Oct-14 01:30N 33°27' W 118°30'0 0.0
2017-Oct-14 01:00N 33°27' W 118°30'0 0.0
2017-Oct-14 00:11N 33°27' W 118°30'0 0.0
2017-Oct-14 00:00N 33°27' W 118°30'0 0.0
2017-Oct-13 23:30N 33°27' W 118°30'0 0.0
2017-Oct-13 22:15N 33°27' W 118°30'6 4.5
2017-Oct-13 20:57N 33°31' W 118°35'3 7.5
2017-Oct-13 20:30N 33°33' W 118°39'8 9.1
2017-Oct-13 19:39N 33°37' W 118°46'1 9.3
2017-Oct-13 19:30N 33°38' W 118°48'5 9.4
2017-Oct-13 19:00N 33°40' W 118°53'5 9.1
2017-Oct-13 18:30N 33°43' W 118°57'4 8.9
2017-Oct-13 18:00N 33°45' W 119°02'4 9.0
2017-Oct-13 17:30N 33°47' W 119°06'4 8.3
2017-Oct-13 17:01N 33°50' W 119°10'4 8.9
2017-Oct-13 16:30N 33°52' W 119°15'4 8.9
2017-Oct-13 16:01N 33°55' W 119°20'5 9.1
2017-Oct-13 15:30N 33°57' W 119°24'5 9.0
2017-Oct-13 14:59N 33°60' W 119°29'3 6.8
2017-Oct-13 14:30N 34°01' W 119°32'0 0.0
2017-Oct-13 14:00N 34°01' W 119°32'0 0.0
2017-Oct-13 13:31N 34°01' W 119°32'0 0.0
2017-Oct-13 12:59N 34°01' W 119°32'0 0.0
2017-Oct-13 12:30N 34°01' W 119°32'0 0.0
2017-Oct-13 12:00N 34°01' W 119°32'0 0.0
2017-Oct-13 11:30N 34°01' W 119°32'0 0.0
2017-Oct-13 11:00N 34°01' W 119°32'0 0.0
2017-Oct-13 10:30N 34°01' W 119°32'0 0.0
2017-Oct-13 10:00N 34°01' W 119°32'0 0.0
2017-Oct-13 09:31N 34°01' W 119°32'0 0.0
2017-Oct-13 09:01N 34°01' W 119°32'0 0.0
2017-Oct-13 08:31N 34°01' W 119°32'0 0.0
2017-Oct-13 08:01N 34°01' W 119°32'0 0.0
2017-Oct-13 07:31N 34°01' W 119°32'0 0.0
2017-Oct-13 07:01N 34°01' W 119°32'0 0.0
2017-Oct-13 06:23N 34°01' W 119°32'0 0.0
2017-Oct-13 06:01N 34°01' W 119°32'0 0.0
2017-Oct-13 05:31N 34°01' W 119°32'0 0.0
2017-Oct-13 05:01N 34°01' W 119°32'0 0.0
2017-Oct-13 04:31N 34°01' W 119°32'0 0.0
2017-Oct-13 04:01N 34°01' W 119°32'0 0.0
2017-Oct-13 03:20N 34°01' W 119°32'0 0.0
2017-Oct-13 02:58N 34°01' W 119°32'0 0.0
2017-Oct-13 02:11N 34°01' W 119°32'0 0.0
2017-Oct-13 02:00N 34°01' W 119°32'0 0.1
2017-Oct-13 01:29N 34°01' W 119°32'0 0.0
2017-Oct-13 01:00N 34°01' W 119°32'1 0.8
2017-Oct-12 23:53N 34°02' W 119°31'2 5.4
2017-Oct-12 23:29N 34°03' W 119°33'0 0.0
2017-Oct-12 22:58N 34°03' W 119°33'0 0.0
2017-Oct-12 22:30N 34°03' W 119°33'0 0.0
2017-Oct-12 21:58N 34°03' W 119°33'0 0.0
2017-Oct-12 21:30N 34°03' W 119°33'0 0.0
2017-Oct-12 21:00N 34°03' W 119°33'2 4.1
2017-Oct-12 20:28N 34°02' W 119°31'4 9.3
2017-Oct-12 20:00N 33°59' W 119°34'5 9.6
2017-Oct-12 19:30N 33°58' W 119°40'0 0.0
2017-Oct-12 16:42N 33°58' W 119°40'2 8.6
2017-Oct-12 16:25N 33°58' W 119°37'4 8.4
2017-Oct-12 15:58N 33°59' W 119°32'2 4.1
2017-Oct-12 15:27N 34°01' W 119°32'0 0.0
2017-Oct-12 15:00N 34°01' W 119°32'0 0.0
2017-Oct-12 14:25N 34°01' W 119°32'0 0.0
2017-Oct-12 13:52N 34°01' W 119°32'0 0.0
2017-Oct-12 13:08N 34°01' W 119°32'0 0.0
2017-Oct-12 12:59N 34°01' W 119°32'0 0.0
2017-Oct-12 12:29N 34°01' W 119°32'0 0.0
2017-Oct-12 11:52N 34°01' W 119°32'0 0.0
2017-Oct-12 11:29N 34°01' W 119°32'0 0.0
2017-Oct-12 10:52N 34°01' W 119°32'0 0.0
2017-Oct-12 10:28N 34°01' W 119°32'0 0.0
2017-Oct-12 09:58N 34°01' W 119°32'0 0.0
2017-Oct-12 09:31N 34°01' W 119°32'0 0.0
2017-Oct-12 09:01N 34°01' W 119°32'0 0.1
2017-Oct-12 08:30N 34°01' W 119°32'0 0.1
2017-Oct-12 07:35N 34°01' W 119°32'0 0.0
2017-Oct-12 07:31N 34°01' W 119°32'0 0.0
2017-Oct-12 06:57N 34°01' W 119°32'0 0.0
2017-Oct-12 06:30N 34°01' W 119°32'0 0.0
2017-Oct-12 06:00N 34°01' W 119°32'0 0.0
2017-Oct-12 05:09N 34°01' W 119°32'0 0.0
2017-Oct-12 04:39N 34°01' W 119°32'0 0.0
2017-Oct-12 04:15N 34°01' W 119°32'0 0.0
2017-Oct-12 04:00N 34°01' W 119°32'0 0.0
2017-Oct-12 03:30N 34°01' W 119°32'0 0.0
2017-Oct-12 02:59N 34°01' W 119°32'0 0.0
2017-Oct-12 02:30N 34°01' W 119°32'0 0.0
2017-Oct-12 01:55N 34°01' W 119°32'0 0.0
2017-Oct-12 01:30N 34°01' W 119°32'0 0.0
2017-Oct-12 01:00N 34°01' W 119°32'0 0.0
2017-Oct-12 00:30N 34°01' W 119°32'0 0.0
2017-Oct-12 00:00N 34°01' W 119°32'0 0.0
2017-Oct-11 23:30N 34°01' W 119°32'0 0.0
2017-Oct-11 22:57N 34°01' W 119°32'0 0.1
2017-Oct-11 22:30N 34°01' W 119°32'0 0.1
2017-Oct-11 21:59N 34°01' W 119°32'4 7.5
2017-Oct-11 21:30N 34°01' W 119°28'4 8.7
2017-Oct-11 21:00N 34°01' W 119°23'4 8.5
2017-Oct-11 20:30N 34°00' W 119°18'5 9.1
2017-Oct-11 20:00N 33°58' W 119°13'4 8.7
2017-Oct-11 19:30N 33°57' W 119°08'4 9.0
2017-Oct-11 19:00N 33°55' W 119°03'5 9.3
2017-Oct-11 18:30N 33°54' W 118°57'5 9.1
2017-Oct-11 18:00N 33°52' W 118°52'5 8.8
2017-Oct-11 17:29N 33°51' W 118°47'4 8.8
2017-Oct-11 16:59N 33°49' W 118°42'32 1.9
2017-Oct-11 00:01N 33°43' W 118°04'0 0.0
2017-Oct-10 23:30N 33°43' W 118°04'0 0.0
2017-Oct-10 23:00N 33°43' W 118°04'0 0.0
2017-Oct-10 22:31N 33°43' W 118°04'1 1.1
2017-Oct-10 22:00N 33°44' W 118°05'0 0.1
2017-Oct-10 21:31N 33°44' W 118°05'1 1.2
2017-Oct-10 21:01N 33°43' W 118°04'0 0.0
2017-Oct-10 20:30N 33°43' W 118°04'0 0.0
2017-Oct-10 20:00N 33°43' W 118°04'0 0.0
2017-Oct-10 19:30N 33°43' W 118°04'0 0.0
2017-Oct-10 19:01N 33°43' W 118°04'0 0.0
2017-Oct-10 18:31N 33°43' W 118°04'0 0.0
2017-Oct-10 18:01N 33°43' W 118°04'0 0.0
2017-Oct-10 17:30N 33°43' W 118°04'0 0.0
2017-Oct-10 17:00N 33°43' W 118°04'0 0.0
2017-Oct-10 16:30N 33°43' W 118°04'0 0.0
2017-Oct-10 16:00N 33°43' W 118°04'0 0.0
2017-Oct-10 15:30N 33°43' W 118°04'0 0.0
2017-Oct-10 15:00N 33°43' W 118°04'0 0.0
2017-Oct-10 14:01N 33°43' W 118°04'0 0.0
2017-Oct-10 13:30N 33°43' W 118°04'0 0.0
2017-Oct-10 13:01N 33°43' W 118°04'0 0.0
2017-Oct-10 12:31N 33°43' W 118°04'0 0.0
2017-Oct-10 12:01N 33°43' W 118°04'0 0.0
2017-Oct-10 11:30N 33°43' W 118°04'0 0.0
2017-Oct-10 11:01N 33°43' W 118°04'0 0.0
2017-Oct-10 10:31N 33°43' W 118°04'0 0.0
2017-Oct-10 10:00N 33°43' W 118°04'0 0.0
2017-Oct-10 09:31N 33°43' W 118°04'0 0.0
2017-Oct-10 09:00N 33°43' W 118°04'0 0.0
2017-Oct-10 08:28N 33°43' W 118°04'0 0.0
2017-Oct-10 08:00N 33°43' W 118°04'0 0.0
2017-Oct-10 07:31N 33°43' W 118°04'0 0.0
2017-Oct-10 07:01N 33°43' W 118°04'0 0.0
2017-Oct-10 06:31N 33°43' W 118°04'0 0.0
2017-Oct-10 05:57N 33°43' W 118°04'0 0.0
2017-Oct-10 05:30N 33°43' W 118°04'0 0.0
2017-Oct-10 05:01N 33°43' W 118°04'0 0.0
2017-Oct-10 04:31N 33°43' W 118°04'0 0.0
2017-Oct-10 04:00N 33°43' W 118°04'0 0.0
2017-Oct-10 03:31N 33°43' W 118°04'0 0.0
2017-Oct-10 03:00N 33°43' W 118°04'0 0.0
2017-Oct-10 02:30N 33°43' W 118°04'0 0.0
2017-Oct-10 02:01N 33°43' W 118°04'0 0.0
2017-Oct-10 01:30N 33°43' W 118°04'0 0.0
2017-Oct-10 01:01N 33°43' W 118°04'0 0.0
2017-Oct-10 00:30N 33°43' W 118°04'0 0.0
2017-Oct-10 00:01N 33°43' W 118°04'0 0.0
2017-Oct-09 23:31N 33°43' W 118°04'0 0.0
2017-Oct-09 23:00N 33°43' W 118°04'0 0.0
2017-Oct-09 22:30N 33°43' W 118°04'0 0.0
2017-Oct-09 21:42N 33°43' W 118°04'0 0.0
2017-Oct-09 21:30N 33°43' W 118°04'0 0.0
2017-Oct-09 21:00N 33°43' W 118°04'0 0.0
2017-Oct-09 20:23N 33°43' W 118°04'0 0.0
2017-Oct-09 18:43N 33°43' W 118°04'0 0.0
2017-Oct-09 18:28N 33°43' W 118°04'0 0.0
2017-Oct-09 17:53N 33°43' W 118°04'0 0.0
2017-Oct-09 16:28N 33°43' W 118°04'0 0.0
2017-Oct-09 15:59N 33°43' W 118°04'0 0.0
2017-Oct-08 22:24N 33°43' W 118°04'0 0.0
2017-Oct-08 21:54N 33°43' W 118°04'0 0.0
2017-Oct-08 20:42N 33°43' W 118°04'0 0.0
2017-Oct-08 18:15N 33°43' W 118°04'0 0.0
2017-Oct-08 17:56N 33°43' W 118°04'0 0.0
2017-Oct-08 17:12N 33°43' W 118°04'1 4.5
2017-Oct-08 16:57N 33°44' W 118°05'4 7.7
2017-Oct-08 16:29N 33°41' W 118°08'5 9.5
2017-Oct-08 16:01N 33°37' W 118°10'5 9.4
2017-Oct-08 15:31N 33°33' W 118°13'5 9.2
2017-Oct-08 15:00N 33°29' W 118°15'5 9.1
2017-Oct-08 14:30N 33°24' W 118°17'4 7.9
2017-Oct-08 14:01N 33°21' W 118°20'0 0.0
2017-Oct-08 13:30N 33°21' W 118°20'0 0.0
2017-Oct-08 13:00N 33°21' W 118°20'0 0.0
2017-Oct-08 12:30N 33°21' W 118°20'0 0.0
2017-Oct-08 12:00N 33°21' W 118°20'0 0.0
2017-Oct-08 11:30N 33°21' W 118°20'0 0.0
2017-Oct-08 11:00N 33°21' W 118°20'0 0.0
2017-Oct-08 10:30N 33°21' W 118°20'0 0.0
2017-Oct-08 10:01N 33°21' W 118°20'0 0.0
2017-Oct-08 09:30N 33°21' W 118°20'0 0.0
2017-Oct-08 09:01N 33°21' W 118°20'0 0.0
2017-Oct-08 08:31N 33°21' W 118°20'0 0.0
2017-Oct-08 08:00N 33°21' W 118°20'0 0.0
2017-Oct-08 07:29N 33°21' W 118°20'0 0.0
2017-Oct-08 07:00N 33°21' W 118°20'0 0.0
2017-Oct-08 06:29N 33°21' W 118°20'0 0.0
2017-Oct-08 06:01N 33°21' W 118°20'0 0.0
2017-Oct-08 05:30N 33°21' W 118°20'0 0.0
2017-Oct-08 05:00N 33°21' W 118°20'0 0.0
2017-Oct-08 04:30N 33°21' W 118°20'0 0.0
2017-Oct-08 04:00N 33°21' W 118°20'0 0.0
2017-Oct-08 03:30N 33°21' W 118°20'0 0.0
2017-Oct-08 03:01N 33°21' W 118°20'0 0.0
2017-Oct-08 02:31N 33°21' W 118°20'0 0.0
2017-Oct-08 02:00N 33°21' W 118°20'0 0.0
2017-Oct-08 01:26N 33°21' W 118°20'0 0.0
2017-Oct-08 01:00N 33°21' W 118°20'0 0.0
2017-Oct-08 00:30N 33°21' W 118°20'  

Dump ship's entire track history